sensor_id;sensor_type;location;lat;lon;timestamp;pressure;altitude;pressure_sealevel;temperature;humidity
50368;BME280;36281;34.132;-118.018;2023-09-19T00:01:12;99865.88;;;27.84;44.33
50368;BME280;36281;34.132;-118.018;2023-09-19T00:03:41;99861.56;;;27.83;44.09
50368;BME280;36281;34.132;-118.018;2023-09-19T00:06:11;99860.16;;;27.77;44.26
50368;BME280;36281;34.132;-118.018;2023-09-19T00:08:44;99867.84;;;27.75;44.70
50368;BME280;36281;34.132;-118.018;2023-09-19T00:11:13;99862.88;;;27.68;44.45
50368;BME280;36281;34.132;-118.018;2023-09-19T00:13:44;99861.47;;;27.62;44.60
50368;BME280;36281;34.132;-118.018;2023-09-19T00:16:18;99868.66;;;27.58;44.72
50368;BME280;36281;34.132;-118.018;2023-09-19T00:18:47;99859.44;;;27.50;44.68
50368;BME280;36281;34.132;-118.018;2023-09-19T00:21:17;99868.06;;;27.44;45.60
50368;BME280;36281;34.132;-118.018;2023-09-19T00:23:48;99866.31;;;27.39;45.99
50368;BME280;36281;34.132;-118.018;2023-09-19T00:26:17;99863.78;;;27.34;45.93
50368;BME280;36281;34.132;-118.018;2023-09-19T00:28:48;99867.44;;;27.29;45.52
50368;BME280;36281;34.132;-118.018;2023-09-19T00:31:17;99878.03;;;27.22;45.81
50368;BME280;36281;34.132;-118.018;2023-09-19T00:33:46;99874.19;;;27.15;46.09
50368;BME280;36281;34.132;-118.018;2023-09-19T00:36:17;99865.25;;;27.14;46.42
50368;BME280;36281;34.132;-118.018;2023-09-19T00:38:47;99867.50;;;27.12;46.00
50368;BME280;36281;34.132;-118.018;2023-09-19T00:41:16;99866.69;;;27.03;45.78
50368;BME280;36281;34.132;-118.018;2023-09-19T00:43:47;99874.03;;;26.94;45.85
50368;BME280;36281;34.132;-118.018;2023-09-19T00:46:17;99876.75;;;26.85;46.16
50368;BME280;36281;34.132;-118.018;2023-09-19T00:48:46;99874.19;;;26.80;46.61
50368;BME280;36281;34.132;-118.018;2023-09-19T00:51:16;99881.69;;;26.74;46.43
50368;BME280;36281;34.132;-118.018;2023-09-19T00:53:49;99878.84;;;26.71;46.28
50368;BME280;36281;34.132;-118.018;2023-09-19T00:56:19;99885.84;;;26.63;46.67
50368;BME280;36281;34.132;-118.018;2023-09-19T00:58:51;99881.69;;;26.57;47.01
50368;BME280;36281;34.132;-118.018;2023-09-19T01:01:21;99879.94;;;26.52;47.08
50368;BME280;36281;34.132;-118.018;2023-09-19T01:03:50;99890.63;;;26.49;47.24
50368;BME280;36281;34.132;-118.018;2023-09-19T01:06:20;99888.38;;;26.42;47.19
50368;BME280;36281;34.132;-118.018;2023-09-19T01:08:49;99885.13;;;26.32;47.43
50368;BME280;36281;34.132;-118.018;2023-09-19T01:11:25;99886.56;;;26.29;47.88
50368;BME280;36281;34.132;-118.018;2023-09-19T01:14:14;99879.22;;;26.21;47.79
50368;BME280;36281;34.132;-118.018;2023-09-19T01:16:55;99870.72;;;26.14;47.97
50368;BME280;36281;34.132;-118.018;2023-09-19T01:22:39;99871.75;;;25.95;48.29
50368;BME280;36281;34.132;-118.018;2023-09-19T01:25:45;99874.31;;;25.92;49.02
50368;BME280;36281;34.132;-118.018;2023-09-19T01:28:31;99870.94;;;25.86;49.12
50368;BME280;36281;34.132;-118.018;2023-09-19T01:31:09;99873.81;;;25.81;48.82
50368;BME280;36281;34.132;-118.018;2023-09-19T01:33:58;99868.31;;;25.72;48.87
50368;BME280;36281;34.132;-118.018;2023-09-19T01:36:29;99863.94;;;25.63;48.65
50368;BME280;36281;34.132;-118.018;2023-09-19T01:38:59;99860.06;;;25.55;49.11
50368;BME280;36281;34.132;-118.018;2023-09-19T01:44:31;99857.75;;;25.40;49.64
50368;BME280;36281;34.132;-118.018;2023-09-19T01:47:17;99870.16;;;25.32;50.31
50368;BME280;36281;34.132;-118.018;2023-09-19T01:49:57;99869.19;;;25.28;50.70
50368;BME280;36281;34.132;-118.018;2023-09-19T01:52:31;99861.78;;;25.20;50.79
50368;BME280;36281;34.132;-118.018;2023-09-19T01:55:07;99867.84;;;25.17;50.68
50368;BME280;36281;34.132;-118.018;2023-09-19T01:57:42;99872.88;;;25.10;51.13
50368;BME280;36281;34.132;-118.018;2023-09-19T02:00:16;99874.06;;;25.04;51.99
50368;BME280;36281;34.132;-118.018;2023-09-19T02:02:49;99876.09;;;24.98;51.58
50368;BME280;36281;34.132;-118.018;2023-09-19T02:05:24;99873.31;;;24.89;51.84
50368;BME280;36281;34.132;-118.018;2023-09-19T02:07:54;99872.66;;;24.84;52.55
50368;BME280;36281;34.132;-118.018;2023-09-19T02:10:24;99876.59;;;24.78;52.45
50368;BME280;36281;34.132;-118.018;2023-09-19T02:12:53;99875.91;;;24.72;53.26
50368;BME280;36281;34.132;-118.018;2023-09-19T02:15:22;99876.31;;;24.65;53.13
50368;BME280;36281;34.132;-118.018;2023-09-19T02:17:53;99886.75;;;24.58;53.55
50368;BME280;36281;34.132;-118.018;2023-09-19T02:20:25;99883.66;;;24.51;53.78
50368;BME280;36281;34.132;-118.018;2023-09-19T02:22:54;99875.63;;;24.46;54.26
50368;BME280;36281;34.132;-118.018;2023-09-19T02:25:23;99870.06;;;24.42;54.79
50368;BME280;36281;34.132;-118.018;2023-09-19T02:27:55;99884.25;;;24.34;55.19
50368;BME280;36281;34.132;-118.018;2023-09-19T02:30:27;99880.06;;;24.28;55.63
50368;BME280;36281;34.132;-118.018;2023-09-19T02:32:57;99884.25;;;24.20;55.71
50368;BME280;36281;34.132;-118.018;2023-09-19T02:35:26;99888.97;;;24.15;55.85
50368;BME280;36281;34.132;-118.018;2023-09-19T02:37:56;99888.28;;;24.09;55.71
50368;BME280;36281;34.132;-118.018;2023-09-19T02:40:25;99889.50;;;24.03;56.64
50368;BME280;36281;34.132;-118.018;2023-09-19T02:42:55;99888.47;;;23.99;56.70
50368;BME280;36281;34.132;-118.018;2023-09-19T02:45:25;99898.59;;;23.93;56.82
50368;BME280;36281;34.132;-118.018;2023-09-19T02:47:54;99898.69;;;23.88;57.05
50368;BME280;36281;34.132;-118.018;2023-09-19T02:50:25;99889.88;;;23.83;57.40
50368;BME280;36281;34.132;-118.018;2023-09-19T02:52:54;99891.06;;;23.77;57.63
50368;BME280;36281;34.132;-118.018;2023-09-19T02:55:23;99892.25;;;23.70;57.89
50368;BME280;36281;34.132;-118.018;2023-09-19T02:57:52;99893.94;;;23.66;58.32
50368;BME280;36281;34.132;-118.018;2023-09-19T03:00:25;99893.50;;;23.59;58.76
50368;BME280;36281;34.132;-118.018;2023-09-19T03:02:55;99897.09;;;23.55;58.91
50368;BME280;36281;34.132;-118.018;2023-09-19T03:05:26;99901.50;;;23.51;59.08
50368;BME280;36281;34.132;-118.018;2023-09-19T03:07:59;99901.34;;;23.42;58.96
50368;BME280;36281;34.132;-118.018;2023-09-19T03:10:31;99897.38;;;23.39;59.04
50368;BME280;36281;34.132;-118.018;2023-09-19T03:13:00;99901.25;;;23.33;59.26
50368;BME280;36281;34.132;-118.018;2023-09-19T03:15:30;99909.72;;;23.27;59.34
50368;BME280;36281;34.132;-118.018;2023-09-19T03:17:59;99908.13;;;23.26;59.37
50368;BME280;36281;34.132;-118.018;2023-09-19T03:20:30;99916.31;;;23.20;59.05
50368;BME280;36281;34.132;-118.018;2023-09-19T03:22:59;99909.88;;;23.16;59.60
50368;BME280;36281;34.132;-118.018;2023-09-19T03:25:31;99908.06;;;23.12;59.47
50368;BME280;36281;34.132;-118.018;2023-09-19T03:28:00;99910.56;;;23.08;59.43
50368;BME280;36281;34.132;-118.018;2023-09-19T03:30:30;99906.84;;;23.04;59.79
50368;BME280;36281;34.132;-118.018;2023-09-19T03:32:59;99902.38;;;22.94;59.81
50368;BME280;36281;34.132;-118.018;2023-09-19T03:35:30;99914.28;;;22.93;60.37
50368;BME280;36281;34.132;-118.018;2023-09-19T03:37:59;99918.66;;;22.89;59.98
50368;BME280;36281;34.132;-118.018;2023-09-19T03:40:28;99914.69;;;22.82;60.16
50368;BME280;36281;34.132;-118.018;2023-09-19T03:43:01;99913.94;;;22.76;60.19
50368;BME280;36281;34.132;-118.018;2023-09-19T03:45:30;99920.22;;;22.71;60.71
50368;BME280;36281;34.132;-118.018;2023-09-19T03:47:59;99918.13;;;22.68;60.70
50368;BME280;36281;34.132;-118.018;2023-09-19T03:50:30;99913.84;;;22.62;60.67
50368;BME280;36281;34.132;-118.018;2023-09-19T03:53:02;99920.97;;;22.58;60.81
50368;BME280;36281;34.132;-118.018;2023-09-19T03:55:31;99921.03;;;22.53;60.92
50368;BME280;36281;34.132;-118.018;2023-09-19T03:58:00;99924.84;;;22.47;61.02
50368;BME280;36281;34.132;-118.018;2023-09-19T04:00:29;99928.41;;;22.42;61.34
50368;BME280;36281;34.132;-118.018;2023-09-19T04:02:58;99935.22;;;22.40;61.58
50368;BME280;36281;34.132;-118.018;2023-09-19T04:05:31;99932.56;;;22.35;61.44
50368;BME280;36281;34.132;-118.018;2023-09-19T04:08:01;99932.34;;;22.31;61.58
50368;BME280;36281;34.132;-118.018;2023-09-19T04:10:30;99931.28;;;22.27;61.75
50368;BME280;36281;34.132;-118.018;2023-09-19T04:12:59;99939.44;;;22.22;61.88
50368;BME280;36281;34.132;-118.018;2023-09-19T04:15:29;99941.94;;;22.18;62.01
50368;BME280;36281;34.132;-118.018;2023-09-19T04:17:57;99952.19;;;22.16;61.74
50368;BME280;36281;34.132;-118.018;2023-09-19T04:20:26;99959.25;;;22.12;61.92
50368;BME280;36281;34.132;-118.018;2023-09-19T04:22:57;99958.69;;;22.10;62.01
50368;BME280;36281;34.132;-118.018;2023-09-19T04:25:28;99960.34;;;22.06;61.97
50368;BME280;36281;34.132;-118.018;2023-09-19T04:27:57;99958.81;;;22.00;62.16
50368;BME280;36281;34.132;-118.018;2023-09-19T04:30:26;99942.19;;;21.88;62.13
50368;BME280;36281;34.132;-118.018;2023-09-19T04:32:55;99958.34;;;21.93;62.35
50368;BME280;36281;34.132;-118.018;2023-09-19T04:35:24;99967.28;;;21.88;62.58
50368;BME280;36281;34.132;-118.018;2023-09-19T04:37:56;99968.94;;;21.84;62.54
50368;BME280;36281;34.132;-118.018;2023-09-19T04:40:25;99977.34;;;21.78;62.68
50368;BME280;36281;34.132;-118.018;2023-09-19T04:42:55;99972.00;;;21.73;62.75
50368;BME280;36281;34.132;-118.018;2023-09-19T04:45:28;99972.03;;;21.67;62.73
50368;BME280;36281;34.132;-118.018;2023-09-19T04:47:58;99971.56;;;21.60;62.82
50368;BME280;36281;34.132;-118.018;2023-09-19T04:50:27;99981.84;;;21.58;63.20
50368;BME280;36281;34.132;-118.018;2023-09-19T04:52:58;99980.50;;;21.56;63.19
50368;BME280;36281;34.132;-118.018;2023-09-19T04:55:27;99981.59;;;21.55;63.39
50368;BME280;36281;34.132;-118.018;2023-09-19T04:57:58;99982.94;;;21.52;63.81
50368;BME280;36281;34.132;-118.018;2023-09-19T05:00:27;99979.19;;;21.48;64.34
50368;BME280;36281;34.132;-118.018;2023-09-19T05:02:59;99977.38;;;21.44;64.80
50368;BME280;36281;34.132;-118.018;2023-09-19T05:05:28;99981.16;;;21.37;65.20
50368;BME280;36281;34.132;-118.018;2023-09-19T05:07:58;99986.88;;;21.31;65.89
50368;BME280;36281;34.132;-118.018;2023-09-19T05:10:36;99987.41;;;21.23;66.29
50368;BME280;36281;34.132;-118.018;2023-09-19T05:13:08;99983.69;;;21.19;66.53
50368;BME280;36281;34.132;-118.018;2023-09-19T05:15:37;99982.09;;;21.12;66.66
50368;BME280;36281;34.132;-118.018;2023-09-19T05:18:06;99982.94;;;21.08;66.97
50368;BME280;36281;34.132;-118.018;2023-09-19T05:20:35;99981.91;;;21.04;67.15
50368;BME280;36281;34.132;-118.018;2023-09-19T05:23:08;99979.50;;;20.97;67.52
50368;BME280;36281;34.132;-118.018;2023-09-19T05:25:40;99979.25;;;20.94;67.91
50368;BME280;36281;34.132;-118.018;2023-09-19T05:28:11;99982.00;;;20.88;68.03
50368;BME280;36281;34.132;-118.018;2023-09-19T05:30:43;99983.31;;;20.86;68.24
50368;BME280;36281;34.132;-118.018;2023-09-19T05:33:15;99988.22;;;20.79;68.59
50368;BME280;36281;34.132;-118.018;2023-09-19T05:35:48;99985.00;;;20.72;68.87
50368;BME280;36281;34.132;-118.018;2023-09-19T05:38:18;99990.41;;;20.67;69.28
50368;BME280;36281;34.132;-118.018;2023-09-19T05:40:48;99985.56;;;20.63;69.76
50368;BME280;36281;34.132;-118.018;2023-09-19T05:43:18;99987.47;;;20.58;70.08
50368;BME280;36281;34.132;-118.018;2023-09-19T05:45:47;99985.34;;;20.55;70.54
50368;BME280;36281;34.132;-118.018;2023-09-19T05:48:16;99982.41;;;20.51;70.45
50368;BME280;36281;34.132;-118.018;2023-09-19T05:50:45;99989.94;;;20.49;70.88
50368;BME280;36281;34.132;-118.018;2023-09-19T05:53:18;99987.25;;;20.44;71.18
50368;BME280;36281;34.132;-118.018;2023-09-19T05:55:47;99992.34;;;20.40;71.29
50368;BME280;36281;34.132;-118.018;2023-09-19T05:58:18;99981.91;;;20.34;71.75
50368;BME280;36281;34.132;-118.018;2023-09-19T06:00:48;99982.44;;;20.31;72.21
50368;BME280;36281;34.132;-118.018;2023-09-19T06:03:17;99981.63;;;20.30;72.27
50368;BME280;36281;34.132;-118.018;2023-09-19T06:05:47;99977.88;;;20.26;72.58
50368;BME280;36281;34.132;-118.018;2023-09-19T06:08:19;99974.09;;;20.22;72.94
50368;BME280;36281;34.132;-118.018;2023-09-19T06:10:48;99978.16;;;20.20;73.34
50368;BME280;36281;34.132;-118.018;2023-09-19T06:13:17;99972.22;;;20.18;73.68
50368;BME280;36281;34.132;-118.018;2023-09-19T06:15:48;99970.63;;;20.11;73.95
50368;BME280;36281;34.132;-118.018;2023-09-19T06:18:18;99972.81;;;20.09;74.15
50368;BME280;36281;34.132;-118.018;2023-09-19T06:20:48;99973.34;;;20.06;74.43
50368;BME280;36281;34.132;-118.018;2023-09-19T06:23:21;99975.75;;;20.03;74.61
50368;BME280;36281;34.132;-118.018;2023-09-19T06:25:51;99981.41;;;20.01;74.66
50368;BME280;36281;34.132;-118.018;2023-09-19T06:28:22;99984.63;;;19.98;74.93
50368;BME280;36281;34.132;-118.018;2023-09-19T06:30:55;99984.38;;;19.95;74.85
50368;BME280;36281;34.132;-118.018;2023-09-19T06:33:24;99989.75;;;19.95;75.21
50368;BME280;36281;34.132;-118.018;2023-09-19T06:35:53;99988.41;;;19.92;75.26
50368;BME280;36281;34.132;-118.018;2023-09-19T06:38:29;99991.66;;;19.89;75.54
50368;BME280;36281;34.132;-118.018;2023-09-19T06:40:59;99987.06;;;19.84;75.75
50368;BME280;36281;34.132;-118.018;2023-09-19T06:43:28;99997.56;;;19.81;75.74
50368;BME280;36281;34.132;-118.018;2023-09-19T06:45:59;99993.50;;;19.78;76.29
50368;BME280;36281;34.132;-118.018;2023-09-19T06:48:28;99999.16;;;19.77;76.71
50368;BME280;36281;34.132;-118.018;2023-09-19T06:51:02;100004.25;;;19.73;77.31
50368;BME280;36281;34.132;-118.018;2023-09-19T06:53:35;100007.50;;;19.70;77.65
50368;BME280;36281;34.132;-118.018;2023-09-19T06:56:04;100003.72;;;19.66;78.04
50368;BME280;36281;34.132;-118.018;2023-09-19T06:58:35;100002.38;;;19.63;78.11
50368;BME280;36281;34.132;-118.018;2023-09-19T07:01:05;99998.63;;;19.59;78.45
50368;BME280;36281;34.132;-118.018;2023-09-19T07:03:34;100003.41;;;19.52;78.85
50368;BME280;36281;34.132;-118.018;2023-09-19T07:06:05;99999.94;;;19.52;79.17
50368;BME280;36281;34.132;-118.018;2023-09-19T07:08:36;100008.25;;;19.50;79.41
50368;BME280;36281;34.132;-118.018;2023-09-19T07:11:09;100011.75;;;19.51;79.52
50368;BME280;36281;34.132;-118.018;2023-09-19T07:13:40;99999.13;;;19.46;79.81
50368;BME280;36281;34.132;-118.018;2023-09-19T07:16:10;100009.31;;;19.44;80.08
50368;BME280;36281;34.132;-118.018;2023-09-19T07:18:55;100012.53;;;19.41;80.24
50368;BME280;36281;34.132;-118.018;2023-09-19T07:21:28;100017.91;;;19.41;80.53
50368;BME280;36281;34.132;-118.018;2023-09-19T07:24:00;99999.09;;;19.36;80.59
50368;BME280;36281;34.132;-118.018;2023-09-19T07:26:32;100009.84;;;19.36;80.89
50368;BME280;36281;34.132;-118.018;2023-09-19T07:29:01;100003.91;;;19.34;81.21
50368;BME280;36281;34.132;-118.018;2023-09-19T07:31:33;100009.56;;;19.32;81.41
50368;BME280;36281;34.132;-118.018;2023-09-19T07:34:02;100009.03;;;19.30;81.51
50368;BME280;36281;34.132;-118.018;2023-09-19T07:36:34;99998.81;;;19.27;81.98
50368;BME280;36281;34.132;-118.018;2023-09-19T07:39:07;100001.22;;;19.24;82.12
50368;BME280;36281;34.132;-118.018;2023-09-19T07:41:49;100000.69;;;19.22;82.35
50368;BME280;36281;34.132;-118.018;2023-09-19T07:44:18;100000.16;;;19.20;82.43
50368;BME280;36281;34.132;-118.018;2023-09-19T07:46:48;100001.19;;;19.19;82.17
50368;BME280;36281;34.132;-118.018;2023-09-19T07:49:19;100006.03;;;19.17;82.22
50368;BME280;36281;34.132;-118.018;2023-09-19T07:51:48;100003.88;;;19.14;82.21
50368;BME280;36281;34.132;-118.018;2023-09-19T07:54:19;99996.09;;;19.12;82.28
50368;BME280;36281;34.132;-118.018;2023-09-19T07:56:50;99991.50;;;19.07;82.38
50368;BME280;36281;34.132;-118.018;2023-09-19T07:59:19;99989.91;;;19.06;82.77
50368;BME280;36281;34.132;-118.018;2023-09-19T08:01:48;99992.31;;;19.03;82.87
50368;BME280;36281;34.132;-118.018;2023-09-19T08:04:17;99999.56;;;19.02;83.17
50368;BME280;36281;34.132;-118.018;2023-09-19T08:06:47;99992.03;;;18.99;83.44
50368;BME280;36281;34.132;-118.018;2023-09-19T08:09:18;99992.84;;;18.95;83.55
50368;BME280;36281;34.132;-118.018;2023-09-19T08:11:52;99999.00;;;18.95;83.71
50368;BME280;36281;34.132;-118.018;2023-09-19T08:14:21;100003.28;;;18.91;83.82
50368;BME280;36281;34.132;-118.018;2023-09-19T08:16:57;100003.56;;;18.90;83.72
50368;BME280;36281;34.132;-118.018;2023-09-19T08:19:27;99995.22;;;18.86;83.94
50368;BME280;36281;34.132;-118.018;2023-09-19T08:22:00;99993.84;;;18.83;83.80
50368;BME280;36281;34.132;-118.018;2023-09-19T08:24:34;99994.94;;;18.82;84.00
50368;BME280;36281;34.132;-118.018;2023-09-19T08:27:04;99992.25;;;18.82;83.88
50368;BME280;36281;34.132;-118.018;2023-09-19T08:29:37;99994.13;;;18.82;84.04
50368;BME280;36281;34.132;-118.018;2023-09-19T08:32:07;99996.81;;;18.82;83.57
50368;BME280;36281;34.132;-118.018;2023-09-19T08:34:37;99989.28;;;18.79;83.32
50368;BME280;36281;34.132;-118.018;2023-09-19T08:37:07;99993.03;;;18.78;83.25
50368;BME280;36281;34.132;-118.018;2023-09-19T08:39:37;99983.38;;;18.77;83.08
50368;BME280;36281;34.132;-118.018;2023-09-19T08:42:06;99981.19;;;18.74;82.94
50368;BME280;36281;34.132;-118.018;2023-09-19T08:44:37;99982.81;;;18.70;82.68
50368;BME280;36281;34.132;-118.018;2023-09-19T08:47:10;99979.81;;;18.66;82.14
50368;BME280;36281;34.132;-118.018;2023-09-19T08:49:50;99979.78;;;18.61;81.86
50368;BME280;36281;34.132;-118.018;2023-09-19T08:52:27;99986.47;;;18.58;82.27
50368;BME280;36281;34.132;-118.018;2023-09-19T08:54:59;99979.22;;;18.59;82.04
50368;BME280;36281;34.132;-118.018;2023-09-19T08:57:34;99979.78;;;18.56;82.28
50368;BME280;36281;34.132;-118.018;2023-09-19T09:00:06;99983.78;;;18.53;82.18
50368;BME280;36281;34.132;-118.018;2023-09-19T09:02:43;99984.31;;;18.50;82.06
50368;BME280;36281;34.132;-118.018;2023-09-19T09:05:14;99985.34;;;18.49;82.38
50368;BME280;36281;34.132;-118.018;2023-09-19T09:07:45;99987.50;;;18.47;82.59
50368;BME280;36281;34.132;-118.018;2023-09-19T09:10:16;99989.66;;;18.45;82.74
50368;BME280;36281;34.132;-118.018;2023-09-19T09:12:45;99984.28;;;18.45;83.06
50368;BME280;36281;34.132;-118.018;2023-09-19T09:15:15;99986.41;;;18.43;83.04
50368;BME280;36281;34.132;-118.018;2023-09-19T09:17:47;99982.66;;;18.44;82.86
50368;BME280;36281;34.132;-118.018;2023-09-19T09:20:21;99982.66;;;18.44;83.04
50368;BME280;36281;34.132;-118.018;2023-09-19T09:22:54;99988.81;;;18.45;82.89
50368;BME280;36281;34.132;-118.018;2023-09-19T09:25:48;99988.81;;;18.45;82.96
50368;BME280;36281;34.132;-118.018;2023-09-19T09:28:25;99986.41;;;18.43;83.08
50368;BME280;36281;34.132;-118.018;2023-09-19T09:30:56;99978.06;;;18.40;83.48
50368;BME280;36281;34.132;-118.018;2023-09-19T09:33:27;99976.72;;;18.37;83.44
50368;BME280;36281;34.132;-118.018;2023-09-19T09:35:58;99973.50;;;18.35;83.21
50368;BME280;36281;34.132;-118.018;2023-09-19T09:38:44;99974.56;;;18.34;83.54
50368;BME280;36281;34.132;-118.018;2023-09-19T09:41:16;99971.06;;;18.33;83.61
50368;BME280;36281;34.132;-118.018;2023-09-19T09:43:55;99963.28;;;18.32;83.63
50368;BME280;36281;34.132;-118.018;2023-09-19T09:46:28;99970.81;;;18.30;83.72
50368;BME280;36281;34.132;-118.018;2023-09-19T09:48:59;99966.75;;;18.27;83.79
50368;BME280;36281;34.132;-118.018;2023-09-19T09:51:50;99959.22;;;18.24;83.97
50368;BME280;36281;34.132;-118.018;2023-09-19T09:54:29;99964.03;;;18.22;84.24
50368;BME280;36281;34.132;-118.018;2023-09-19T09:57:11;99953.81;;;18.19;84.42
50368;BME280;36281;34.132;-118.018;2023-09-19T09:59:51;99954.91;;;18.18;84.43
50368;BME280;36281;34.132;-118.018;2023-09-19T10:02:28;99955.16;;;18.17;84.81
50368;BME280;36281;34.132;-118.018;2023-09-19T10:04:58;99947.13;;;18.17;85.11
50368;BME280;36281;34.132;-118.018;2023-09-19T10:07:37;99942.84;;;18.16;84.87
50368;BME280;36281;34.132;-118.018;2023-09-19T10:10:11;99939.59;;;18.14;84.97
50368;BME280;36281;34.132;-118.018;2023-09-19T10:12:54;99935.28;;;18.07;84.74
50368;BME280;36281;34.132;-118.018;2023-09-19T10:15:27;99934.97;;;18.04;84.95
50368;BME280;36281;34.132;-118.018;2023-09-19T10:18:01;99935.25;;;18.02;85.12
50368;BME280;36281;34.132;-118.018;2023-09-19T10:20:33;99933.88;;;18.00;85.29
50368;BME280;36281;34.132;-118.018;2023-09-19T10:23:07;99931.19;;;18.00;85.21
50368;BME280;36281;34.132;-118.018;2023-09-19T10:25:41;99926.91;;;17.99;85.09
50368;BME280;36281;34.132;-118.018;2023-09-19T10:28:14;99927.97;;;17.98;85.15
50368;BME280;36281;34.132;-118.018;2023-09-19T10:30:45;99925.00;;;17.94;85.04
50368;BME280;36281;34.132;-118.018;2023-09-19T10:33:20;99918.84;;;17.94;85.08
50368;BME280;36281;34.132;-118.018;2023-09-19T10:35:50;99912.38;;;17.90;84.97
50368;BME280;36281;34.132;-118.018;2023-09-19T10:38:25;99920.69;;;17.88;85.03
50368;BME280;36281;34.132;-118.018;2023-09-19T10:40:55;99923.88;;;17.85;84.97
50368;BME280;36281;34.132;-118.018;2023-09-19T10:43:33;99921.72;;;17.82;85.10
50368;BME280;36281;34.132;-118.018;2023-09-19T10:46:07;99915.00;;;17.79;85.01
50368;BME280;36281;34.132;-118.018;2023-09-19T10:48:39;99916.34;;;17.77;85.07
50368;BME280;36281;34.132;-118.018;2023-09-19T10:51:11;99914.72;;;17.76;85.10
50368;BME280;36281;34.132;-118.018;2023-09-19T10:53:50;99915.22;;;17.73;85.26
50368;BME280;36281;34.132;-118.018;2023-09-19T10:56:30;99908.72;;;17.69;85.13
50368;BME280;36281;34.132;-118.018;2023-09-19T10:59:08;99912.47;;;17.68;85.10
50368;BME280;36281;34.132;-118.018;2023-09-19T11:01:44;99913.78;;;17.65;84.70
50368;BME280;36281;34.132;-118.018;2023-09-19T11:04:24;99924.72;;;17.58;84.85
50368;BME280;36281;34.132;-118.018;2023-09-19T11:07:03;99927.63;;;17.52;85.10
50368;BME280;36281;34.132;-118.018;2023-09-19T11:09:48;99920.66;;;17.51;85.22
50368;BME280;36281;34.132;-118.018;2023-09-19T11:12:49;99918.00;;;17.51;85.29
50368;BME280;36281;34.132;-118.018;2023-09-19T11:18:55;99912.34;;;17.47;85.21
50368;BME280;36281;34.132;-118.018;2023-09-19T11:21:53;99909.34;;;17.44;85.37
50368;BME280;36281;34.132;-118.018;2023-09-19T11:24:30;99910.69;;;17.41;85.26
50368;BME280;36281;34.132;-118.018;2023-09-19T11:27:15;99912.78;;;17.39;85.32
50368;BME280;36281;34.132;-118.018;2023-09-19T11:29:46;99918.16;;;17.39;85.29
50368;BME280;36281;34.132;-118.018;2023-09-19T11:32:17;99906.31;;;17.35;85.72
50368;BME280;36281;34.132;-118.018;2023-09-19T11:35:11;99901.50;;;17.32;85.85
50368;BME280;36281;34.132;-118.018;2023-09-19T11:38:00;99904.19;;;17.32;85.73
50368;BME280;36281;34.132;-118.018;2023-09-19T11:40:35;99898.25;;;17.30;85.70
50368;BME280;36281;34.132;-118.018;2023-09-19T11:43:29;99889.69;;;17.28;85.95
50368;BME280;36281;34.132;-118.018;2023-09-19T11:46:06;99886.47;;;17.26;86.27
50368;BME280;36281;34.132;-118.018;2023-09-19T11:48:39;99891.50;;;17.22;86.70
50368;BME280;36281;34.132;-118.018;2023-09-19T11:51:16;99896.56;;;17.19;86.80
50368;BME280;36281;34.132;-118.018;2023-09-19T11:53:51;99895.75;;;17.18;86.91
50368;BME280;36281;34.132;-118.018;2023-09-19T11:56:21;99897.88;;;17.16;86.77
50368;BME280;36281;34.132;-118.018;2023-09-19T11:58:53;99890.09;;;17.15;86.98
50368;BME280;36281;34.132;-118.018;2023-09-19T12:01:25;99898.66;;;17.12;86.58
50368;BME280;36281;34.132;-118.018;2023-09-19T12:03:58;99894.84;;;17.08;86.71
50368;BME280;36281;34.132;-118.018;2023-09-19T12:06:30;99890.00;;;17.04;86.95
50368;BME280;36281;34.132;-118.018;2023-09-19T12:09:00;99894.00;;;17.02;86.74
50368;BME280;36281;34.132;-118.018;2023-09-19T12:11:31;99897.19;;;16.99;86.49
50368;BME280;36281;34.132;-118.018;2023-09-19T12:14:02;99902.25;;;17.00;86.52
50368;BME280;36281;34.132;-118.018;2023-09-19T12:16:32;99888.88;;;17.00;86.58
50368;BME280;36281;34.132;-118.018;2023-09-19T12:19:19;99897.47;;;17.02;86.82
50368;BME280;36281;34.132;-118.018;2023-09-19T12:21:57;99900.16;;;17.02;87.12
50368;BME280;36281;34.132;-118.018;2023-09-19T12:24:28;99897.47;;;17.02;87.11
50368;BME280;36281;34.132;-118.018;2023-09-19T12:27:02;99902.25;;;17.00;87.42
50368;BME280;36281;34.132;-118.018;2023-09-19T12:29:43;99894.25;;;17.00;87.51
50368;BME280;36281;34.132;-118.018;2023-09-19T12:32:13;99893.44;;;17.00;87.49
50368;BME280;36281;34.132;-118.018;2023-09-19T12:34:51;99892.63;;;16.99;87.27
50368;BME280;36281;34.132;-118.018;2023-09-19T12:37:22;99905.19;;;16.99;87.27
50368;BME280;36281;34.132;-118.018;2023-09-19T12:39:52;99897.94;;;16.94;87.35
50368;BME280;36281;34.132;-118.018;2023-09-19T12:42:26;99892.03;;;16.92;87.14
50368;BME280;36281;34.132;-118.018;2023-09-19T12:45:01;99903.22;;;16.89;87.19
50368;BME280;36281;34.132;-118.018;2023-09-19T12:47:30;99894.34;;;16.84;87.29
50368;BME280;36281;34.132;-118.018;2023-09-19T12:50:10;99895.09;;;16.79;86.80
50368;BME280;36281;34.132;-118.018;2023-09-19T12:52:59;99905.75;;;16.74;87.07
50368;BME280;36281;34.132;-118.018;2023-09-19T12:55:29;99906.81;;;16.73;87.51
50368;BME280;36281;34.132;-118.018;2023-09-19T12:58:08;99908.06;;;16.70;87.30
50368;BME280;36281;34.132;-118.018;2023-09-19T13:00:38;99917.97;;;16.70;87.14
50368;BME280;36281;34.132;-118.018;2023-09-19T13:03:16;99910.47;;;16.67;87.24
50368;BME280;36281;34.132;-118.018;2023-09-19T13:05:54;99912.06;;;16.68;87.30
50368;BME280;36281;34.132;-118.018;2023-09-19T13:08:29;99902.66;;;16.65;87.51